createdAt,value
2022-08-03T00:01:57.498Z,2.25
2022-08-03T00:04:34.242Z,2.30
2022-08-03T00:09:35.701Z,2.63
2022-08-03T00:12:04.973Z,2.42
2022-08-03T00:14:33.783Z,2.38
2022-08-03T00:17:03.829Z,2.50
2022-08-03T00:19:32.551Z,2.35
2022-08-03T00:22:01.400Z,2.80
2022-08-03T00:24:31.688Z,2.67
2022-08-03T00:27:00.563Z,2.90
2022-08-03T00:29:29.460Z,2.90
2022-08-03T00:32:00.163Z,3.50
2022-08-03T00:34:36.498Z,3.00
2022-08-03T00:37:23.276Z,3.10
2022-08-03T00:40:16.231Z,3.30
2022-08-03T00:43:06.414Z,3.30
2022-08-03T00:45:38.476Z,3.10
2022-08-03T00:48:19.786Z,3.25
2022-08-03T00:51:09.358Z,2.97
2022-08-03T00:53:48.752Z,2.63
2022-08-03T00:56:18.896Z,2.90
2022-08-03T00:58:48.167Z,2.85
2022-08-03T01:01:17.087Z,2.97
2022-08-03T01:03:46.693Z,2.72
2022-08-03T01:06:18.779Z,3.05
2022-08-03T01:08:59.603Z,2.40
2022-08-03T01:12:00.947Z,2.80
2022-08-03T01:14:47.532Z,2.67
2022-08-03T01:17:26.303Z,2.50
2022-08-03T01:19:55.118Z,2.40
2022-08-03T01:22:41.085Z,2.42
2022-08-03T01:25:37.283Z,2.35
2022-08-03T01:28:19.229Z,2.30
2022-08-03T01:30:55.440Z,2.40
2022-08-03T01:33:29.146Z,2.55
2022-08-03T01:36:05.602Z,2.80
2022-08-03T01:38:45.333Z,2.60
2022-08-03T01:41:31.370Z,2.50
2022-08-03T01:44:27.312Z,2.80
2022-08-03T01:46:53.769Z,2.77
2022-08-03T01:49:23.214Z,3.10
2022-08-03T01:52:04.137Z,2.70
2022-08-03T01:54:42.663Z,2.90
2022-08-03T01:57:12.210Z,2.40
2022-08-03T01:59:42.874Z,2.00
2022-08-03T02:02:33.506Z,2.60
2022-08-03T02:05:10.631Z,3.10
2022-08-03T02:07:42.430Z,2.10
2022-08-03T02:10:34.508Z,2.22
2022-08-03T02:13:08.315Z,2.40
2022-08-03T02:15:48.762Z,2.20
2022-08-03T02:18:19.537Z,2.03
2022-08-03T02:21:10.869Z,2.28
2022-08-03T02:23:41.381Z,2.42
2022-08-03T02:26:16.145Z,2.78
2022-08-03T02:28:50.159Z,2.58
2022-08-03T02:31:27.744Z,2.20
2022-08-03T02:34:09.210Z,2.50
2022-08-03T02:36:40.238Z,2.45
2022-08-03T02:39:12.105Z,2.97
2022-08-03T02:41:53.154Z,2.40
2022-08-03T02:44:27.043Z,2.53
2022-08-03T02:46:59.394Z,3.00
2022-08-03T02:49:42.632Z,2.60
2022-08-03T02:52:19.949Z,2.85
2022-08-03T02:54:51.492Z,2.90
2022-08-03T02:57:22.362Z,3.29
2022-08-03T02:59:53.523Z,2.60
2022-08-03T03:02:25.979Z,2.42
2022-08-03T03:05:56.364Z,2.33
2022-08-03T03:07:56.824Z,2.47
2022-08-03T03:10:38.231Z,2.30
2022-08-03T03:13:10.273Z,2.88
2022-08-03T03:15:40.349Z,2.33
2022-08-03T03:18:22.994Z,2.20
2022-08-03T03:20:54.780Z,2.42
2022-08-03T03:23:25.458Z,2.40
2022-08-03T03:26:00.632Z,2.38
2022-08-03T03:28:29.799Z,2.50
2022-08-03T03:31:02.009Z,2.63
2022-08-03T03:33:34.315Z,2.40
2022-08-03T03:36:05.061Z,2.20
2022-08-03T03:38:34.671Z,2.03
2022-08-03T03:41:04.958Z,2.10
2022-08-03T03:43:33.993Z,2.30
2022-08-03T03:46:07.958Z,1.92
2022-08-03T03:48:36.829Z,2.33
2022-08-03T03:51:06.405Z,2.08
2022-08-03T03:53:35.133Z,1.75
2022-08-03T03:56:04.692Z,2.00
2022-08-03T03:58:35.495Z,2.58
2022-08-03T04:01:04.449Z,2.00
2022-08-03T04:03:33.304Z,2.20
2022-08-03T04:06:20.975Z,1.90
2022-08-03T04:09:19.031Z,2.30
2022-08-03T04:11:54.751Z,1.90
2022-08-03T04:14:34.558Z,1.90
2022-08-03T04:17:09.477Z,1.75
2022-08-03T04:19:44.211Z,1.85
2022-08-03T04:22:18.326Z,1.80
2022-08-03T04:25:00.575Z,1.85
2022-08-03T04:27:34.839Z,1.63
2022-08-03T04:30:06.172Z,1.80
2022-08-03T04:32:37.726Z,1.60
2022-08-03T04:35:08.180Z,1.90
2022-08-03T04:37:49.225Z,1.80
2022-08-03T04:40:31.717Z,1.67
2022-08-03T04:43:02.517Z,1.67
2022-08-03T04:45:33.375Z,1.58
2022-08-03T04:48:03.069Z,1.70
2022-08-03T04:50:32.384Z,1.98
2022-08-03T04:53:07.677Z,1.80
2022-08-03T04:55:41.242Z,1.83
2022-08-03T04:58:09.928Z,2.50
2022-08-03T05:00:39.165Z,1.90
2022-08-03T05:03:20.105Z,1.65
2022-08-03T05:06:01.754Z,1.88
2022-08-03T05:08:46.879Z,1.40
2022-08-03T05:11:17.876Z,1.58
2022-08-03T05:13:50.994Z,1.70
2022-08-03T05:16:29.908Z,1.60
2022-08-03T05:18:58.741Z,1.67
2022-08-03T05:21:51.156Z,1.63
2022-08-03T05:24:16.276Z,1.85
2022-08-03T05:26:45.105Z,1.88
2022-08-03T05:29:13.939Z,1.80
2022-08-03T05:31:42.755Z,1.60
2022-08-03T05:34:11.567Z,1.40
2022-08-03T05:36:40.365Z,1.50
2022-08-03T05:39:09.141Z,1.65
2022-08-03T05:41:39.509Z,1.50
2022-08-03T05:44:08.254Z,1.95
2022-08-03T05:46:37.014Z,1.60
2022-08-03T05:49:05.904Z,1.77
2022-08-03T05:51:34.702Z,1.60
2022-08-03T05:54:04.080Z,1.42
2022-08-03T05:56:32.795Z,1.50
2022-08-03T05:59:28.789Z,1.60
2022-08-03T06:02:05.980Z,1.80
2022-08-03T06:04:34.801Z,1.60
2022-08-03T06:07:03.927Z,1.55
2022-08-03T06:10:33.239Z,1.75
2022-08-03T06:12:22.080Z,1.45
2022-08-03T06:14:51.023Z,1.30
2022-08-03T06:17:19.906Z,1.70
2022-08-03T06:19:48.709Z,1.50
2022-08-03T06:22:18.272Z,2.08
2022-08-03T06:24:57.003Z,1.50
2022-08-03T06:27:28.332Z,1.25
2022-08-03T06:30:16.020Z,2.03
2022-08-03T06:32:51.808Z,1.30
2022-08-03T06:35:21.821Z,1.40
2022-08-03T06:37:52.069Z,1.10
2022-08-03T06:40:31.711Z,1.30
2022-08-03T06:43:12.854Z,1.40
2022-08-03T06:45:44.728Z,1.33
2022-08-03T06:48:16.513Z,1.58
2022-08-03T06:50:45.378Z,1.30
2022-08-03T06:53:19.922Z,1.40
2022-08-03T06:55:54.341Z,1.35
2022-08-03T06:58:34.244Z,1.23
2022-08-03T07:01:03.098Z,1.52
2022-08-03T07:03:31.965Z,1.50
2022-08-03T07:06:01.869Z,1.30
2022-08-03T07:08:33.487Z,1.30
2022-08-03T07:11:13.143Z,1.30
2022-08-03T07:13:47.020Z,1.40
2022-08-03T07:16:25.295Z,1.25
2022-08-03T07:19:03.626Z,1.63
2022-08-03T07:21:32.359Z,1.20
2022-08-03T07:24:07.047Z,1.10
2022-08-03T07:26:40.327Z,1.70
2022-08-03T07:29:14.732Z,1.40
2022-08-03T07:31:44.106Z,1.60
2022-08-03T07:34:13.049Z,1.50
2022-08-03T07:36:41.889Z,1.80
2022-08-03T07:39:14.712Z,1.65
2022-08-03T07:41:52.278Z,1.60
2022-08-03T07:44:21.114Z,1.38
2022-08-03T07:46:51.184Z,1.45
2022-08-03T07:49:20.810Z,1.65
2022-08-03T07:52:18.815Z,1.70
2022-08-03T07:54:53.035Z,1.67
2022-08-03T07:57:22.384Z,1.60
2022-08-03T08:00:02.734Z,1.56
2022-08-03T08:02:50.434Z,1.58
2022-08-03T08:05:19.390Z,1.80
2022-08-03T08:07:51.569Z,1.60
2022-08-03T08:10:26.140Z,1.55
2022-08-03T08:12:55.875Z,1.60
2022-08-03T08:15:25.211Z,1.63
2022-08-03T08:17:56.065Z,1.60
2022-08-03T08:20:31.377Z,1.77
2022-08-03T08:23:03.110Z,1.63
2022-08-03T08:25:33.204Z,2.00
2022-08-03T08:28:29.587Z,1.55
2022-08-03T08:30:54.403Z,1.60
2022-08-03T08:33:24.037Z,1.58
2022-08-03T08:35:54.343Z,1.35
2022-08-03T08:38:23.967Z,1.60
2022-08-03T08:40:57.121Z,1.60
2022-08-03T08:43:26.154Z,1.40
2022-08-03T08:45:56.878Z,1.70
2022-08-03T08:48:28.655Z,1.77
2022-08-03T08:50:58.083Z,1.52
2022-08-03T08:53:33.552Z,2.65
2022-08-03T08:56:04.258Z,1.60
2022-08-03T08:58:39.153Z,1.60
2022-08-03T09:01:08.139Z,1.48
2022-08-03T09:03:37.075Z,1.52
2022-08-03T09:06:19.386Z,1.77
2022-08-03T09:08:53.470Z,4.07
2022-08-03T09:11:52.379Z,1.80
2022-08-03T09:14:37.028Z,1.40
2022-08-03T09:17:07.671Z,1.80
2022-08-03T09:20:08.770Z,1.40
2022-08-03T09:22:51.919Z,1.60
2022-08-03T09:25:34.065Z,1.58
2022-08-03T09:28:10.788Z,1.50
2022-08-03T09:30:44.575Z,1.63
2022-08-03T09:33:17.016Z,1.25
2022-08-03T09:35:53.949Z,1.80
2022-08-03T09:38:27.745Z,1.75
2022-08-03T09:41:00.272Z,2.40
2022-08-03T09:43:46.161Z,1.63
2022-08-03T09:46:14.902Z,1.42
2022-08-03T09:48:43.653Z,1.95
2022-08-03T09:51:32.829Z,1.47
2022-08-03T09:54:16.102Z,1.50
2022-08-03T09:56:58.566Z,1.30
2022-08-03T09:59:34.202Z,1.08
2022-08-03T10:02:22.313Z,1.27
2022-08-03T10:04:56.829Z,1.75
2022-08-03T10:07:47.114Z,1.30
2022-08-03T10:10:28.943Z,1.35
2022-08-03T10:13:00.963Z,1.42
2022-08-03T10:16:24.078Z,1.20
2022-08-03T10:18:29.888Z,1.30
2022-08-03T10:21:08.373Z,1.33
2022-08-03T10:23:39.224Z,1.40
2022-08-03T10:26:23.183Z,1.00
2022-08-03T10:28:54.487Z,1.20
2022-08-03T10:31:24.832Z,1.20
2022-08-03T10:33:58.572Z,1.20
2022-08-03T10:36:32.610Z,1.58
2022-08-03T10:39:03.363Z,1.20
2022-08-03T10:41:48.183Z,1.20
2022-08-03T10:44:23.573Z,1.00
2022-08-03T10:46:53.703Z,1.10
2022-08-03T10:49:33.843Z,0.80
2022-08-03T10:52:30.296Z,0.90
2022-08-03T10:55:17.765Z,1.50
2022-08-03T10:58:00.843Z,1.05
2022-08-03T11:00:51.276Z,1.17
2022-08-03T11:03:21.131Z,1.35
2022-08-03T11:05:50.444Z,1.02
2022-08-03T11:08:24.646Z,1.00
2022-08-03T11:11:01.871Z,1.05
2022-08-03T11:13:34.168Z,1.05
2022-08-03T11:16:21.972Z,1.38
2022-08-03T11:19:01.603Z,1.27
2022-08-03T11:21:51.530Z,1.20
2022-08-03T11:24:41.224Z,1.30
2022-08-03T11:27:28.015Z,1.20
2022-08-03T11:29:59.959Z,0.93
2022-08-03T11:32:46.596Z,1.00
2022-08-03T11:35:22.287Z,1.45
2022-08-03T11:38:02.984Z,1.10
2022-08-03T11:40:52.663Z,1.20
2022-08-03T11:43:35.629Z,1.20
2022-08-03T11:46:14.050Z,1.30
2022-08-03T11:49:10.541Z,1.20
2022-08-03T11:51:41.268Z,0.98
2022-08-03T11:54:11.735Z,0.98
2022-08-03T11:56:51.154Z,1.00
2022-08-03T11:59:33.273Z,1.15
2022-08-03T12:02:15.142Z,0.90
2022-08-03T12:05:03.291Z,1.05
2022-08-03T12:08:03.376Z,1.30
2022-08-03T12:10:21.545Z,1.17
2022-08-03T12:12:57.975Z,1.70
2022-08-03T12:17:57.961Z,1.10
2022-08-03T12:20:34.955Z,1.00
2022-08-03T12:23:06.351Z,1.15
2022-08-03T12:25:39.671Z,1.20
2022-08-03T12:28:28.315Z,1.27
2022-08-03T12:31:09.707Z,6.63
2022-08-03T12:34:03.201Z,1.30
2022-08-03T12:36:35.695Z,1.10
2022-08-03T12:39:09.714Z,1.20
2022-08-03T12:41:41.290Z,1.60
2022-08-03T12:44:16.131Z,1.50
2022-08-03T12:46:48.006Z,1.50
2022-08-03T12:49:20.250Z,1.10
2022-08-03T12:51:51.948Z,1.15
2022-08-03T12:54:27.039Z,1.17
2022-08-03T12:57:00.084Z,1.40
2022-08-03T12:59:35.019Z,1.10
2022-08-03T13:04:38.587Z,0.98
2022-08-03T13:07:12.678Z,1.50
2022-08-03T13:09:48.634Z,1.17
2022-08-03T13:12:30.328Z,0.98
2022-08-03T13:15:03.211Z,1.10
2022-08-03T13:17:32.149Z,1.08
2022-08-03T13:20:00.936Z,1.17
2022-08-03T13:22:29.753Z,1.08
2022-08-03T13:24:58.662Z,1.38
2022-08-03T13:28:11.075Z,1.50
2022-08-03T13:30:30.088Z,1.63
2022-08-03T13:33:00.869Z,1.40
2022-08-03T13:35:29.775Z,1.45
2022-08-03T13:37:58.671Z,2.38
2022-08-03T13:40:30.032Z,5.75
2022-08-03T13:42:59.463Z,7.55
2022-08-03T13:45:37.995Z,8.80
2022-08-03T13:48:08.481Z,2.53
2022-08-03T13:50:42.558Z,3.50
2022-08-03T13:53:11.883Z,2.90
2022-08-03T13:55:40.793Z,3.00
2022-08-03T13:58:12.710Z,3.65
2022-08-03T14:00:41.782Z,2.55
2022-08-03T14:03:21.729Z,4.95
2022-08-03T14:05:50.563Z,2.80
2022-08-03T14:08:23.989Z,2.55
2022-08-03T14:10:57.812Z,2.67
2022-08-03T14:13:29.587Z,2.35
2022-08-03T14:15:58.460Z,2.25
2022-08-03T14:18:41.556Z,2.45
2022-08-03T14:21:20.313Z,2.60
2022-08-03T14:23:49.192Z,2.40
2022-08-03T14:26:19.184Z,3.20
2022-08-03T14:28:47.960Z,2.75
2022-08-03T14:32:09.914Z,2.47
2022-08-03T14:34:05.718Z,2.47
2022-08-03T14:36:35.547Z,4.03
2022-08-03T14:39:04.710Z,3.22
2022-08-03T14:41:33.607Z,3.00
2022-08-03T14:44:02.634Z,8.67
2022-08-03T14:46:33.661Z,10.75
2022-08-03T14:50:32.222Z,5.05
2022-08-03T14:51:55.236Z,4.47
2022-08-03T14:54:24.190Z,3.60
2022-08-03T14:57:03.256Z,3.42
2022-08-03T14:59:55.777Z,3.75
2022-08-03T15:02:23.745Z,4.28
2022-08-03T15:05:02.334Z,3.47
2022-08-03T15:07:36.592Z,3.30
2022-08-03T15:10:10.377Z,3.55
2022-08-03T15:12:49.676Z,3.50
2022-08-03T15:15:18.372Z,3.60
2022-08-03T15:18:00.157Z,3.78
2022-08-03T15:20:43.395Z,3.85
2022-08-03T15:23:14.421Z,3.75
2022-08-03T15:26:32.241Z,4.07
2022-08-03T15:28:33.676Z,3.58
2022-08-03T15:31:02.632Z,4.50
2022-08-03T15:33:31.564Z,2.90
2022-08-03T15:36:00.868Z,2.87
2022-08-03T15:38:29.736Z,3.25
2022-08-03T15:40:59.389Z,3.13
2022-08-03T15:43:28.261Z,3.78
2022-08-03T15:48:46.236Z,3.33
2022-08-03T15:51:20.110Z,3.67
2022-08-03T15:53:48.908Z,3.40
2022-08-03T15:56:18.886Z,3.90
2022-08-03T15:59:04.205Z,3.45
2022-08-03T16:01:47.714Z,3.40
2022-08-03T16:04:16.625Z,3.80
2022-08-03T16:06:45.436Z,3.63
2022-08-03T16:09:23.699Z,4.15
2022-08-03T16:12:04.539Z,4.40
2022-08-03T16:14:43.413Z,3.90
2022-08-03T16:17:20.028Z,3.93
2022-08-03T16:19:49.126Z,3.00
2022-08-03T16:22:26.986Z,2.50
2022-08-03T16:24:56.051Z,2.60
2022-08-03T16:27:37.401Z,2.70
2022-08-03T16:30:17.125Z,2.90
2022-08-03T16:32:46.349Z,2.97
2022-08-03T16:35:19.742Z,2.54
2022-08-03T16:37:54.629Z,2.72
2022-08-03T16:40:26.986Z,2.67
2022-08-03T16:42:56.160Z,2.72
2022-08-03T16:45:25.277Z,3.33
2022-08-03T16:48:01.640Z,2.60
2022-08-03T16:50:42.353Z,2.80
2022-08-03T16:53:33.121Z,2.33
2022-08-03T16:56:09.918Z,2.35
2022-08-03T16:58:42.161Z,2.55
2022-08-03T17:01:22.216Z,1.98
2022-08-03T17:04:02.377Z,4.95
2022-08-03T17:06:38.369Z,2.53
2022-08-03T17:09:17.971Z,2.63
2022-08-03T17:11:49.206Z,2.10
2022-08-03T17:14:29.394Z,2.10
2022-08-03T17:17:02.087Z,2.08
2022-08-03T17:19:35.512Z,2.08
2022-08-03T17:22:12.477Z,1.98
2022-08-03T17:24:46.991Z,2.15
2022-08-03T17:28:49.248Z,2.20
2022-08-03T17:30:18.980Z,1.80
2022-08-03T17:32:57.119Z,2.45
2022-08-03T17:35:36.902Z,2.45
2022-08-03T17:38:13.825Z,2.20
2022-08-03T17:40:50.195Z,2.10
2022-08-03T17:44:13.420Z,2.22
2022-08-03T17:46:12.192Z,1.90
2022-08-03T17:48:49.130Z,2.00
2022-08-03T17:51:34.770Z,2.30
2022-08-03T17:55:57.429Z,2.00
2022-08-03T17:58:02.050Z,1.73
2022-08-03T18:00:52.135Z,2.00
2022-08-03T18:03:32.469Z,2.25
2022-08-03T18:06:28.820Z,1.98
2022-08-03T18:09:04.872Z,1.85
2022-08-03T18:11:58.626Z,2.25
2022-08-03T18:14:57.760Z,2.20
2022-08-03T18:17:55.621Z,2.47
2022-08-03T18:20:32.842Z,2.20
2022-08-03T18:23:07.834Z,2.63
2022-08-03T18:25:45.468Z,2.55
2022-08-03T18:28:29.460Z,2.58
2022-08-03T18:30:58.866Z,2.40
2022-08-03T18:36:34.769Z,2.36
2022-08-03T18:39:05.705Z,2.00
2022-08-03T18:41:36.800Z,2.20
2022-08-03T18:44:37.307Z,2.20
2022-08-03T18:47:16.079Z,2.15
2022-08-03T18:54:04.025Z,2.00
2022-08-03T18:57:08.313Z,1.80
2022-08-03T19:00:12.208Z,2.15
2022-08-03T19:02:56.471Z,1.90
2022-08-03T19:05:56.551Z,2.08
2022-08-03T19:08:29.232Z,2.15
2022-08-03T19:11:06.041Z,2.05
2022-08-03T19:16:39.937Z,1.90
2022-08-03T19:19:14.474Z,2.38
2022-08-03T19:21:45.570Z,1.90
2022-08-03T19:24:26.818Z,1.98
2022-08-03T19:26:56.436Z,2.00
2022-08-03T19:29:59.641Z,2.38
2022-08-03T19:32:29.238Z,1.95
2022-08-03T19:34:59.754Z,2.00
2022-08-03T19:37:38.434Z,2.05
2022-08-03T19:40:10.460Z,2.15
2022-08-03T19:42:46.167Z,2.00
2022-08-03T19:45:22.351Z,2.08
2022-08-03T19:48:14.396Z,2.10
2022-08-03T19:50:44.623Z,2.25
2022-08-03T19:53:14.084Z,2.10
2022-08-03T19:55:46.433Z,2.15
2022-08-03T19:58:28.745Z,2.28
2022-08-03T20:00:59.699Z,2.20
2022-08-03T20:03:49.647Z,2.22
2022-08-03T20:06:29.118Z,2.10
2022-08-03T20:08:58.745Z,2.13
2022-08-03T20:11:43.654Z,2.10
2022-08-03T20:14:26.299Z,2.10
2022-08-03T20:16:55.675Z,1.83
2022-08-03T20:19:32.654Z,2.37
2022-08-03T20:22:04.876Z,2.15
2022-08-03T20:24:52.596Z,2.38
2022-08-03T20:27:32.235Z,2.10
2022-08-03T20:30:27.308Z,2.28
2022-08-03T20:32:56.352Z,2.17
2022-08-03T20:35:25.255Z,2.05
2022-08-03T20:37:56.345Z,2.28
2022-08-03T20:40:33.980Z,2.20
2022-08-03T20:43:02.769Z,2.25
2022-08-03T20:45:59.578Z,2.35
2022-08-03T20:48:21.998Z,2.30
2022-08-03T20:50:51.700Z,2.08
2022-08-03T20:53:57.480Z,2.40
2022-08-03T20:56:10.254Z,2.30
2022-08-03T20:58:41.620Z,2.10
2022-08-03T21:01:15.787Z,2.78
2022-08-03T21:03:55.459Z,2.42
2022-08-03T21:06:45.722Z,2.42
2022-08-03T21:09:42.273Z,2.08
2022-08-03T21:13:05.735Z,2.20
2022-08-03T21:16:12.053Z,2.28
2022-08-03T21:18:51.893Z,2.14
2022-08-03T21:21:23.752Z,2.20
2022-08-03T21:23:59.411Z,2.35
2022-08-03T21:26:32.271Z,2.55
2022-08-03T21:29:14.438Z,2.55
2022-08-03T21:31:53.585Z,2.38
2022-08-03T21:34:35.338Z,2.30
2022-08-03T21:37:04.410Z,2.30
2022-08-03T21:39:33.430Z,2.43
2022-08-03T21:42:02.435Z,2.15
2022-08-03T21:44:39.387Z,2.53
2022-08-03T21:47:11.548Z,2.50
2022-08-03T21:50:04.515Z,2.42
2022-08-03T21:52:34.256Z,2.40
2022-08-03T21:55:09.359Z,2.50
2022-08-03T21:57:52.670Z,2.72
2022-08-03T22:00:24.112Z,2.87
2022-08-03T22:02:57.955Z,2.63
2022-08-03T22:05:43.561Z,2.92
2022-08-03T22:08:18.528Z,2.60
2022-08-03T22:10:49.404Z,2.70
2022-08-03T22:13:43.103Z,2.78
2022-08-03T22:16:08.580Z,2.95
2022-08-03T22:18:41.905Z,2.58
2022-08-03T22:21:27.902Z,2.50
2022-08-03T22:24:11.078Z,2.90
2022-08-03T22:27:03.311Z,2.40
2022-08-03T22:29:43.778Z,2.33
2022-08-03T22:32:12.649Z,2.80
2022-08-03T22:34:53.214Z,2.65
2022-08-03T22:37:33.685Z,2.70
2022-08-03T22:40:08.534Z,2.85
2022-08-03T22:42:38.193Z,2.65
2022-08-03T22:45:12.504Z,3.60
2022-08-03T22:48:11.838Z,2.60
2022-08-03T22:50:43.884Z,2.80
2022-08-03T22:53:20.167Z,3.03
2022-08-03T22:55:50.064Z,2.85
2022-08-03T22:58:24.071Z,3.35
2022-08-03T23:00:58.912Z,2.72
2022-08-03T23:03:59.943Z,2.88
2022-08-03T23:06:37.300Z,2.88
2022-08-03T23:09:19.228Z,3.30
2022-08-03T23:12:01.901Z,2.83
2022-08-03T23:14:37.812Z,3.10
2022-08-03T23:17:08.148Z,2.90
2022-08-03T23:19:44.624Z,3.30
2022-08-03T23:22:17.078Z,2.90
2022-08-03T23:25:10.040Z,3.30
2022-08-03T23:27:44.032Z,3.58
2022-08-03T23:30:19.925Z,3.40
2022-08-03T23:32:54.614Z,3.58
2022-08-03T23:36:29.369Z,3.95
2022-08-03T23:38:35.922Z,3.17
2022-08-03T23:41:10.827Z,4.00
2022-08-03T23:43:53.853Z,3.50
2022-08-03T23:46:24.195Z,2.70
2022-08-03T23:49:01.297Z,3.17
2022-08-03T23:51:56.569Z,3.20
2022-08-03T23:54:43.733Z,3.30
